Flight Briefing for CMB852

Departure Arrival
Yokota AFB (RJTY)
Click to view FAA NOTAMS
Paya Lebar Airport (WSAP)
Click to view FAA NOTAMS
Departure Time Arrival Time
N/A N/A
Aircraft Distance
B757-200SF 2891nm
Departure METAR Arrival METAR
RJTY 252256Z AUTO 02003KT 10SM BKN110 08/02 A2998 RMK AO2 SLP158 T00830019 FZRANO $ WSAP 252300Z 03004KT 9000 FEW018 BKN300 28/25 Q1010
Suggested Route
XAC V18 MOE KARTA BUBDO MDE JOM M767 TOMAN


View recent IFR Routes data
Notes
USTRANSCOM CONTRACT FLIGHT

Charts and Procedures

Charts for RJTY
No chart available
Charts for WSAP
No chart available

Windy.com Weather Map